createdAt,value
2022-10-31T00:03:22.595Z,42.68
2022-10-31T00:08:22.797Z,41.55
2022-10-31T00:13:24.002Z,40.73
2022-10-31T00:18:20.165Z,40.73
2022-10-31T00:23:20.402Z,39.98
2022-10-31T00:33:17.896Z,39.78
2022-10-31T00:38:17.117Z,39.36
2022-10-31T00:43:16.332Z,38.75
2022-10-31T00:48:15.520Z,38.73
2022-10-31T00:53:15.708Z,38.21
2022-10-31T01:03:14.172Z,37.48
2022-10-31T01:08:13.372Z,37.16
2022-10-31T01:13:12.578Z,36.96
2022-10-31T01:18:10.735Z,36.98
2022-10-31T01:23:09.910Z,37.41
2022-10-31T01:28:09.108Z,37.21
2022-10-31T01:33:08.284Z,37.73
2022-10-31T01:38:08.486Z,37.81
2022-10-31T01:43:06.716Z,37.60
2022-10-31T01:48:06.065Z,37.28
2022-10-31T01:53:05.360Z,36.78
2022-10-31T01:58:05.751Z,36.80
2022-10-31T02:03:04.113Z,36.50
2022-10-31T02:08:03.163Z,36.52
2022-10-31T02:13:03.632Z,37.10
2022-10-31T02:18:03.065Z,36.68
2022-10-31T02:23:02.012Z,36.49
2022-10-31T02:28:01.707Z,35.57
2022-10-31T02:32:59.867Z,36.07
2022-10-31T02:37:59.853Z,36.19
2022-10-31T02:42:58.564Z,36.40
2022-10-31T02:47:58.781Z,36.38
2022-10-31T02:52:57.702Z,35.49
2022-10-31T02:57:57.201Z,36.08
2022-10-31T03:02:55.334Z,35.77
2022-10-31T03:07:55.647Z,36.08
2022-10-31T03:12:53.945Z,35.79
2022-10-31T03:17:53.317Z,36.30
2022-10-31T03:22:52.437Z,36.19
2022-10-31T03:27:52.771Z,35.59
2022-10-31T03:32:52.127Z,35.19
2022-10-31T03:37:50.519Z,35.27
2022-10-31T03:42:49.643Z,35.10
2022-10-31T03:47:49.948Z,34.81
2022-10-31T03:52:49.279Z,35.69
2022-10-31T03:57:47.558Z,35.39
2022-10-31T04:02:47.714Z,34.78
2022-10-31T04:07:46.046Z,34.68
2022-10-31T04:12:46.392Z,34.59
2022-10-31T04:17:44.495Z,34.50
2022-10-31T04:22:44.785Z,35.19
2022-10-31T04:27:43.082Z,34.68
2022-10-31T04:32:45.501Z,34.48
2022-10-31T04:37:41.560Z,34.58
2022-10-31T04:42:40.865Z,34.50
2022-10-31T04:47:40.174Z,35.10
2022-10-31T04:52:39.496Z,35.29
2022-10-31T04:57:39.807Z,34.59
2022-10-31T05:02:40.754Z,35.29
2022-10-31T05:07:38.313Z,34.76
2022-10-31T05:12:36.709Z,34.46
2022-10-31T05:17:36.857Z,34.55
2022-10-31T05:22:35.194Z,34.15
2022-10-31T05:27:34.332Z,34.45
2022-10-31T05:32:33.648Z,34.34
2022-10-31T05:37:32.974Z,34.15
2022-10-31T05:42:33.285Z,33.65
2022-10-31T05:47:31.619Z,33.55
2022-10-31T05:52:30.724Z,33.95
2022-10-31T05:57:31.116Z,34.15
2022-10-31T06:02:29.209Z,33.65
2022-10-31T06:07:29.511Z,33.98
2022-10-31T06:12:27.776Z,33.18
2022-10-31T06:17:31.076Z,33.36
2022-10-31T06:22:27.356Z,32.96
2022-10-31T06:27:25.673Z,33.25
2022-10-31T06:32:25.027Z,33.14
2022-10-31T06:37:25.324Z,33.14
2022-10-31T06:42:23.614Z,33.04
2022-10-31T06:47:22.943Z,33.14
2022-10-31T06:52:24.280Z,33.24
2022-10-31T06:57:21.427Z,33.15
2022-10-31T07:02:21.592Z,33.95
2022-10-31T07:07:20.804Z,34.56
2022-10-31T07:12:19.958Z,33.83
2022-10-31T07:17:21.764Z,34.03
2022-10-31T07:22:17.324Z,34.45
2022-10-31T07:27:16.659Z,34.15
2022-10-31T07:32:15.953Z,34.46
2022-10-31T07:37:15.285Z,34.13
2022-10-31T07:42:13.608Z,33.62
2022-10-31T07:47:13.743Z,33.52
2022-10-31T07:52:13.091Z,33.75
2022-10-31T07:57:13.434Z,35.79
2022-10-31T08:02:11.743Z,35.16
2022-10-31T08:07:10.854Z,35.75
2022-10-31T08:12:12.172Z,35.97
2022-10-31T08:17:09.524Z,35.85
2022-10-31T08:22:07.913Z,36.57
2022-10-31T08:27:08.814Z,35.74
2022-10-31T08:32:08.126Z,35.74
2022-10-31T08:37:04.498Z,35.54
2022-10-31T08:42:05.642Z,36.68
2022-10-31T08:47:04.948Z,38.11
2022-10-31T08:52:04.259Z,38.01
2022-10-31T08:57:03.562Z,37.30
2022-10-31T09:02:02.934Z,38.31
2022-10-31T09:12:01.243Z,37.38
2022-10-31T09:17:00.366Z,38.07
2022-10-31T09:21:59.676Z,38.20
2022-10-31T09:26:58.903Z,38.29
2022-10-31T09:31:58.198Z,38.67
2022-10-31T09:36:57.460Z,38.65
2022-10-31T09:41:57.542Z,39.39
2022-10-31T09:46:56.077Z,37.52
2022-10-31T09:51:56.431Z,36.90
2022-10-31T09:56:55.714Z,36.79
2022-10-31T10:01:54.173Z,36.38
2022-10-31T10:06:53.366Z,36.90
2022-10-31T10:11:52.685Z,36.08
2022-10-31T10:16:52.051Z,35.86
2022-10-31T10:21:51.154Z,37.90
2022-10-31T10:26:52.483Z,38.32
2022-10-31T10:31:51.782Z,36.76
2022-10-31T10:36:49.063Z,37.26
2022-10-31T10:41:48.380Z,36.44
2022-10-31T10:46:48.680Z,36.23
2022-10-31T10:56:47.201Z,36.15
2022-10-31T11:01:45.376Z,35.83
2022-10-31T11:06:44.553Z,36.23
2022-10-31T11:11:43.755Z,35.91
2022-10-31T11:16:42.928Z,35.52
2022-10-31T11:21:43.126Z,36.24
2022-10-31T11:26:41.314Z,36.23
2022-10-31T11:31:41.634Z,36.74
2022-10-31T11:36:39.818Z,36.62
2022-10-31T11:41:50.614Z,38.07
2022-10-31T11:46:38.343Z,37.04
2022-10-31T11:51:36.563Z,35.17
2022-10-31T11:56:36.785Z,34.97
2022-10-31T12:01:37.755Z,34.78
2022-10-31T12:06:36.278Z,34.78
2022-10-31T12:11:35.504Z,35.28
2022-10-31T12:16:34.755Z,35.28
2022-10-31T12:21:32.937Z,37.12
2022-10-31T12:26:32.228Z,35.58
2022-10-31T12:31:34.642Z,35.99
2022-10-31T12:36:30.735Z,35.19
2022-10-31T12:41:33.698Z,35.68
2022-10-31T12:46:30.195Z,34.97
2022-10-31T12:51:29.474Z,35.17
2022-10-31T12:56:27.786Z,35.38
2022-10-31T13:01:27.252Z,35.47
2022-10-31T13:06:26.433Z,35.68
2022-10-31T13:11:26.799Z,35.57
2022-10-31T13:16:25.925Z,35.38
2022-10-31T13:21:25.230Z,35.27
2022-10-31T13:26:23.567Z,35.57
2022-10-31T13:31:23.716Z,35.37
2022-10-31T13:36:21.868Z,35.76
2022-10-31T13:41:21.014Z,35.47
2022-10-31T13:46:20.379Z,34.95
2022-10-31T13:51:19.482Z,34.86
2022-10-31T13:56:18.809Z,35.47
2022-10-31T14:01:18.363Z,35.66
2022-10-31T14:06:18.455Z,36.39
2022-10-31T14:11:16.763Z,35.86
2022-10-31T14:16:17.087Z,35.05
2022-10-31T14:21:16.441Z,35.88
2022-10-31T14:26:14.684Z,35.86
2022-10-31T14:31:14.964Z,36.18
2022-10-31T14:36:19.610Z,36.79
2022-10-31T14:41:12.396Z,35.68
2022-10-31T14:46:13.724Z,35.57
2022-10-31T14:51:11.021Z,35.76
2022-10-31T14:56:10.159Z,35.86
2022-10-31T15:01:09.569Z,36.29
2022-10-31T15:06:08.749Z,36.59
2022-10-31T15:11:09.070Z,36.18
2022-10-31T15:16:08.357Z,36.29
2022-10-31T15:21:09.893Z,35.88
2022-10-31T15:26:06.814Z,36.61
2022-10-31T15:31:05.105Z,36.61
2022-10-31T15:36:04.367Z,37.24
2022-10-31T15:41:03.664Z,36.61
2022-10-31T15:46:02.972Z,36.10
2022-10-31T15:51:02.236Z,36.39
2022-10-31T15:56:01.520Z,36.10
2022-10-31T16:00:59.895Z,36.62
2022-10-31T16:05:59.991Z,36.74
2022-10-31T16:10:59.308Z,36.23
2022-10-31T16:16:21.367Z,36.01
2022-10-31T16:20:58.776Z,36.33
2022-10-31T16:25:58.067Z,36.23
2022-10-31T16:30:56.397Z,36.44
2022-10-31T16:36:04.129Z,36.43
2022-10-31T16:40:54.948Z,35.21
2022-10-31T16:45:55.094Z,35.61
2022-10-31T16:50:54.530Z,36.24
2022-10-31T16:55:53.702Z,36.36
2022-10-31T17:00:51.972Z,36.24
2022-10-31T17:05:51.136Z,36.05
2022-10-31T17:10:50.245Z,35.85
2022-10-31T17:15:50.606Z,36.74
2022-10-31T17:20:48.713Z,37.57
2022-10-31T17:25:48.107Z,38.18
2022-10-31T17:30:47.244Z,37.98
2022-10-31T17:35:46.567Z,37.35
2022-10-31T17:40:45.839Z,37.15
2022-10-31T17:45:47.347Z,36.64
2022-10-31T17:50:44.460Z,37.05
2022-10-31T17:55:43.793Z,36.72
2022-10-31T18:00:45.913Z,37.17
2022-10-31T18:05:42.509Z,37.22
2022-10-31T18:10:41.442Z,37.12
2022-10-31T18:15:41.780Z,37.13
2022-10-31T18:20:40.104Z,37.41
2022-10-31T18:25:40.460Z,37.83
2022-10-31T18:30:40.100Z,37.81
2022-10-31T18:35:40.078Z,37.71
2022-10-31T18:40:38.394Z,37.40
2022-10-31T18:45:56.761Z,37.08
2022-10-31T18:50:37.306Z,36.87
2022-10-31T18:55:37.601Z,37.28
2022-10-31T19:00:35.568Z,37.20
2022-10-31T19:05:33.944Z,36.79
2022-10-31T19:10:33.919Z,37.36
2022-10-31T19:15:33.587Z,36.77
2022-10-31T19:20:35.385Z,36.77
2022-10-31T19:25:32.043Z,36.79
2022-10-31T19:30:30.353Z,37.26
2022-10-31T19:35:30.492Z,36.63
2022-10-31T19:40:30.030Z,35.86
2022-10-31T19:45:28.855Z,36.67
2022-10-31T19:50:28.042Z,36.67
2022-10-31T19:55:26.200Z,36.75
2022-10-31T20:00:25.621Z,36.44
2022-10-31T20:05:24.894Z,35.73
2022-10-31T20:10:25.864Z,35.45
2022-10-31T20:15:23.210Z,36.16
2022-10-31T20:20:22.367Z,35.94
2022-10-31T20:25:21.483Z,35.33
2022-10-31T20:30:20.825Z,35.53
2022-10-31T20:35:20.478Z,35.63
2022-10-31T20:40:19.687Z,35.45
2022-10-31T20:45:17.504Z,35.83
2022-10-31T20:50:18.590Z,35.53
2022-10-31T20:55:20.369Z,35.33
2022-10-31T21:00:16.529Z,35.53
2022-10-31T21:05:15.416Z,35.73
2022-10-31T21:10:14.677Z,35.43
2022-10-31T21:15:13.865Z,35.43
2022-10-31T21:20:13.288Z,34.91
2022-10-31T21:25:13.430Z,34.91
2022-10-31T21:30:11.605Z,34.71
2022-10-31T21:35:11.910Z,35.52
2022-10-31T21:40:10.148Z,35.83
2022-10-31T21:45:08.314Z,35.52
2022-10-31T21:50:09.503Z,35.41
2022-10-31T21:55:07.726Z,34.71
2022-10-31T22:00:06.929Z,35.63
2022-10-31T22:05:06.101Z,36.04
2022-10-31T22:10:05.280Z,36.14
2022-10-31T22:15:06.456Z,35.60
2022-10-31T22:20:04.628Z,35.61
2022-10-31T22:25:02.787Z,35.93
2022-10-31T22:30:02.958Z,36.02
2022-10-31T22:35:01.165Z,35.91
2022-10-31T22:40:00.386Z,36.12
2022-10-31T22:44:59.547Z,35.81
2022-10-31T22:49:58.764Z,36.21
2022-10-31T22:54:59.272Z,37.01
2022-10-31T22:59:57.199Z,36.82
2022-10-31T23:04:57.461Z,35.81
2022-10-31T23:09:55.662Z,35.71
2022-10-31T23:14:54.855Z,36.02
2022-10-31T23:19:54.039Z,36.93
2022-10-31T23:24:54.251Z,36.34
2022-10-31T23:30:35.578Z,36.32
2022-10-31T23:34:51.857Z,36.75
2022-10-31T23:39:51.180Z,36.57
2022-10-31T23:44:51.498Z,37.40
2022-10-31T23:49:49.786Z,37.91
2022-10-31T23:54:49.089Z,38.34
2022-10-31T23:59:48.389Z,38.66
